Time;durP1;ratioP1;P1;durP2;ratioP2;P2;SDS_P1;SDS_P2;PMS_P1;PMS_P2;Temp;Humidity;BMP_temperature;BMP_pressure;BME280_temperature;BME280_humidity;BME280_pressure;Samples;Min_cycle;Max_cycle;Signal;HPM_P1;HPM_P2
2022/01/04 00:01:44;;;;;;;3.58;1.00;;;;;;;10.55;80.43;98887.59;5050859;28;20049;-90
2022/01/04 00:04:11;;;;;;;2.22;1.10;;;;;;;10.55;80.25;98876.97;5061389;28;20118;-91
2022/01/04 00:06:38;;;;;;;3.20;1.08;;;;;;;10.55;80.37;98865.53;5063758;28;20045;-90
2022/01/04 00:09:07;;;;;;;2.05;1.08;;;;;;;10.56;80.66;98859.25;5081046;28;20052;-89
2022/01/04 00:14:10;;;;;;;2.33;1.20;;;;;;;10.57;80.67;98850.28;5031912;28;20067;-89
2022/01/04 00:16:37;;;;;;;2.20;1.20;;;;;;;10.56;80.88;98846.81;5029909;28;20094;-89
2022/01/04 00:19:04;;;;;;;3.60;1.45;;;;;;;10.58;80.59;98839.53;5062756;28;20072;-91
2022/01/04 00:21:31;;;;;;;3.38;1.30;;;;;;;10.57;80.73;98837.84;5047513;28;20348;-90
2022/01/04 00:23:58;;;;;;;2.10;1.35;;;;;;;10.57;81.15;98831.69;5060675;28;20064;-90
2022/01/04 00:26:26;;;;;;;2.83;1.40;;;;;;;10.59;80.92;98829.72;5065529;28;20044;-89
2022/01/04 00:28:53;;;;;;;2.20;1.42;;;;;;;10.59;80.84;98824.41;5030433;28;20053;-89
2022/01/04 00:31:21;;;;;;;1.52;1.05;;;;;;;10.59;81.00;98827.91;5049962;28;20055;-89
2022/01/04 00:33:48;;;;;;;2.28;1.48;;;;;;;10.59;81.03;98825.25;5078579;28;20118;-89
2022/01/04 00:36:15;;;;;;;3.03;1.45;;;;;;;10.60;81.21;98828.72;5068997;28;20041;-90
2022/01/04 00:38:43;;;;;;;5.57;1.45;;;;;;;10.60;81.11;98810.97;5051670;28;20040;-90
2022/01/04 00:41:09;;;;;;;4.15;1.33;;;;;;;10.60;81.05;98800.34;5029284;28;20795;-90
2022/01/04 00:43:37;;;;;;;2.88;1.60;;;;;;;10.61;81.25;98798.53;5079102;28;20044;-90
2022/01/04 00:46:03;;;;;;;3.53;1.67;;;;;;;10.60;81.23;98789.72;5048684;28;20040;-90
2022/01/04 00:51:02;;;;;;;2.63;1.70;;;;;;;10.59;81.27;98790.72;5035000;28;20489;-90
2022/01/04 00:53:31;;;;;;;4.72;1.55;;;;;;;10.61;81.31;98783.44;4993973;28;20459;-89
2022/01/04 00:55:58;;;;;;;2.60;1.42;;;;;;;10.61;81.32;98777.31;5049476;28;20059;-90
2022/01/04 00:58:25;;;;;;;5.03;1.80;;;;;;;10.60;81.77;98775.63;5033772;28;20147;-91
2022/01/04 01:00:51;;;;;;;3.42;1.80;;;;;;;10.60;81.79;98765.84;5038303;28;20451;-91
2022/01/04 01:03:19;;;;;;;2.72;1.73;;;;;;;10.65;81.99;98757.38;5033990;28;20036;-90
2022/01/04 01:05:46;;;;;;;3.53;1.83;;;;;;;10.63;81.96;98757.56;5048727;28;20060;-90
2022/01/04 01:08:12;;;;;;;5.53;2.08;;;;;;;10.62;81.72;98747.94;5051157;28;20044;-90
2022/01/04 01:10:48;;;;;;;4.22;2.00;;;;;;;10.64;81.83;98751.25;5035979;28;20040;-91
2022/01/04 01:13:15;;;;;;;2.83;1.90;;;;;;;10.65;81.97;98749.41;5065191;28;20150;-90
2022/01/04 01:15:45;;;;;;;2.90;1.77;;;;;;;10.63;82.15;98740.78;5049101;28;20511;-90
2022/01/04 01:18:15;;;;;;;4.75;2.20;;;;;;;10.63;81.98;98736.34;5040694;28;20098;-91
2022/01/04 01:20:42;;;;;;;2.50;1.50;;;;;;;10.64;82.15;98739.81;5064325;28;20412;-90
2022/01/04 01:23:09;;;;;;;2.67;1.83;;;;;;;10.65;82.33;98730.84;5062664;28;20040;-90
2022/01/04 01:25:35;;;;;;;4.07;2.00;;;;;;;10.65;81.94;98739.63;5055172;28;20040;-90
2022/01/04 01:28:58;;;;;;;2.58;1.52;;;;;;;10.52;82.32;98731.31;5048218;28;20086;-91
2022/01/04 01:31:24;;;;;;;6.45;1.98;;;;;;;10.64;82.05;98715.91;5003882;28;20045;-88
2022/01/04 01:37:38;;;;;;;4.10;1.55;;;;;;;10.64;82.31;98713.25;5037192;28;20505;-90
2022/01/04 01:40:06;;;;;;;3.70;1.73;;;;;;;10.65;82.41;98707.78;5033839;28;20436;-89
2022/01/04 01:42:32;;;;;;;5.95;2.22;;;;;;;10.65;82.50;98697.16;5039526;28;20065;-90
2022/01/04 01:45:05;;;;;;;4.75;2.00;;;;;;;10.59;82.56;98695.16;5027637;28;20044;-91
2022/01/04 01:47:32;;;;;;;3.90;2.13;;;;;;;10.64;82.42;98695.50;5046525;28;20040;-90
2022/01/04 01:49:59;;;;;;;3.75;2.03;;;;;;;10.64;82.44;98674.25;5036685;28;20036;-90
2022/01/04 01:52:25;;;;;;;4.70;2.42;;;;;;;10.66;82.41;98682.06;5038311;28;20058;-90
2022/01/04 01:54:53;;;;;;;2.67;2.47;;;;;;;10.67;82.61;98674.94;5036059;28;20067;-90
2022/01/04 01:57:20;;;;;;;3.97;2.28;;;;;;;10.68;82.66;98681.91;5058879;28;20119;-90
2022/01/04 01:59:47;;;;;;;3.53;1.80;;;;;;;10.67;82.53;98664.31;5049189;28;20040;-90
2022/01/04 02:02:13;;;;;;;3.67;2.03;;;;;;;10.69;82.74;98680.91;5038399;28;20638;-90
2022/01/04 02:04:41;;;;;;;4.85;2.65;;;;;;;10.70;82.74;98667.47;5045296;28;20086;-89
2022/01/04 02:07:36;;;;;;;2.97;1.70;;;;;;;10.54;82.85;98665.63;5052427;28;20051;-89
2022/01/04 02:10:05;;;;;;;6.35;2.13;;;;;;;10.68;82.85;98650.03;5061678;28;20131;-89
2022/01/04 02:12:38;;;;;;;4.72;1.83;;;;;;;10.65;82.73;98649.38;5062014;28;20045;-90
2022/01/04 02:15:08;;;;;;;6.60;2.35;;;;;;;10.69;82.66;98641.09;5061202;28;20060;-90
2022/01/04 02:17:36;;;;;;;4.85;2.22;;;;;;;10.69;82.77;98626.00;5078911;28;20044;-89
2022/01/04 02:20:04;;;;;;;4.22;2.38;;;;;;;10.70;82.89;98626.81;5064306;28;20151;-90
2022/01/04 02:22:31;;;;;;;6.85;1.90;;;;;;;10.71;82.82;98620.50;5045575;28;20049;-89
2022/01/04 02:24:58;;;;;;;4.40;1.98;;;;;;;10.70;82.94;98614.34;5065065;28;20033;-90
2022/01/04 02:27:25;;;;;;;3.47;2.17;;;;;;;10.71;82.79;98601.91;5066894;28;20127;-90
2022/01/04 02:29:52;;;;;;;4.47;2.38;;;;;;;10.70;82.97;98601.09;5050286;28;20124;-89
2022/01/04 02:32:19;;;;;;;5.47;2.45;;;;;;;10.71;82.80;98599.25;5050742;28;20143;-89
2022/01/04 02:34:48;;;;;;;3.55;2.17;;;;;;;10.71;82.65;98592.16;5042344;28;20511;-90
2022/01/04 02:37:19;;;;;;;4.82;2.00;;;;;;;10.68;82.84;98581.84;5064027;28;20072;-89
2022/01/04 02:39:46;;;;;;;2.88;2.00;;;;;;;10.71;83.28;98570.03;5046440;28;20132;-89
2022/01/04 02:42:13;;;;;;;5.50;2.42;;;;;;;10.71;82.74;98564.75;5061843;28;20056;-90
2022/01/04 02:44:40;;;;;;;6.03;2.75;;;;;;;10.71;83.23;98568.25;5047602;28;20040;-89
2022/01/04 02:47:07;;;;;;;10.48;4.40;;;;;;;10.73;82.83;98568.06;5003813;28;20052;-89
2022/01/04 02:49:34;;;;;;;7.80;4.18;;;;;;;10.72;83.12;98555.78;5063859;28;20529;-90
2022/01/04 02:52:02;;;;;;;6.15;3.03;;;;;;;10.72;82.98;98556.63;5058667;28;20099;-90
2022/01/04 02:54:29;;;;;;;5.38;2.53;;;;;;;10.72;83.09;98548.66;5060600;28;20047;-90
2022/01/04 02:56:56;;;;;;;3.55;1.95;;;;;;;10.73;82.97;98549.47;5049849;28;20064;-90
2022/01/04 02:59:23;;;;;;;8.00;3.03;;;;;;;10.72;83.04;98546.00;5050142;28;20415;-88
2022/01/04 03:01:50;;;;;;;4.40;2.40;;;;;;;10.73;82.92;98539.69;5049944;28;20041;-90
2022/01/04 03:04:20;;;;;;;5.25;2.28;;;;;;;10.73;82.88;98528.22;5060216;28;20084;-90
2022/01/04 03:06:46;;;;;;;6.00;2.60;;;;;;;10.73;82.92;98537.03;5063392;28;20055;-90
2022/01/04 03:09:13;;;;;;;5.13;2.20;;;;;;;10.73;83.20;98528.22;5058645;28;20131;-90
2022/01/04 03:11:40;;;;;;;4.78;2.10;;;;;;;10.74;83.25;98527.25;5055235;28;20044;-90
2022/01/04 03:14:06;;;;;;;4.10;2.20;;;;;;;10.73;83.16;98520.28;5037507;28;20470;-89
2022/01/04 03:16:35;;;;;;;4.95;2.13;;;;;;;10.72;82.99;98522.09;5051228;28;20126;-89
2022/01/04 03:19:03;;;;;;;4.93;2.20;;;;;;;10.74;82.83;98521.94;5046989;28;20168;-89
2022/01/04 03:21:30;;;;;;;5.07;1.95;;;;;;;10.74;82.79;98521.94;5060421;28;20056;-89
2022/01/04 03:23:57;;;;;;;3.88;1.90;;;;;;;10.74;83.12;98511.31;5058823;28;20454;-90
2022/01/04 03:26:25;;;;;;;4.22;2.17;;;;;;;10.73;83.04;98497.19;5046811;28;20139;-90
2022/01/04 03:28:52;;;;;;;4.22;2.25;;;;;;;10.74;82.93;98498.88;5035656;28;20056;-89
2022/01/04 03:31:19;;;;;;;4.93;2.45;;;;;;;10.74;83.21;98498.06;5063241;28;20047;-89
2022/01/04 03:33:46;;;;;;;4.40;2.35;;;;;;;10.74;83.10;98490.91;5054631;28;20127;-91
2022/01/04 03:36:14;;;;;;;6.03;2.85;;;;;;;10.74;83.12;98490.09;5036912;28;20123;-90
2022/01/04 03:38:42;;;;;;;4.28;2.53;;;;;;;10.74;83.14;98482.13;5052942;28;20116;-90
2022/01/04 03:41:09;;;;;;;5.18;2.40;;;;;;;10.72;83.20;98479.63;5037147;28;20044;-90
2022/01/04 03:43:39;;;;;;;4.25;2.28;;;;;;;10.73;83.39;98483.09;5037106;28;20040;-90
2022/01/04 03:46:06;;;;;;;3.33;2.28;;;;;;;10.73;83.42;98480.44;5032066;28;20067;-90
2022/01/04 03:48:34;;;;;;;3.35;2.10;;;;;;;10.74;83.37;98471.50;5057483;28;20402;-90
2022/01/04 03:51:03;;;;;;;5.28;2.40;;;;;;;10.73;82.86;98460.03;5035446;28;20046;-90
2022/01/04 03:53:30;;;;;;;5.70;2.40;;;;;;;10.74;82.94;98452.91;5063809;28;20534;-90
2022/01/04 03:55:57;;;;;;;3.88;2.33;;;;;;;10.74;83.17;98443.13;5047263;28;20458;-90
2022/01/04 03:58:24;;;;;;;8.07;2.72;;;;;;;10.76;83.19;98442.94;5067825;28;20051;-91
2022/01/04 04:00:50;;;;;;;8.57;3.20;;;;;;;10.76;83.36;98437.63;5049817;28;21115;-89
2022/01/04 04:03:18;;;;;;;4.07;2.53;;;;;;;10.75;83.19;98428.00;5065820;28;20162;-90
2022/01/04 04:05:44;;;;;;;5.20;2.03;;;;;;;10.75;83.14;98430.66;5046436;28;20040;-90
2022/01/04 04:08:11;;;;;;;8.48;3.67;;;;;;;10.74;83.47;98421.88;5046589;28;20046;-88
2022/01/04 04:10:40;;;;;;;3.78;2.40;;;;;;;10.74;83.22;98415.75;5049464;28;20082;-90
2022/01/04 04:13:07;;;;;;;5.68;2.50;;;;;;;10.75;83.52;98407.59;5033583;28;20051;-90
2022/01/04 04:15:34;;;;;;;11.20;3.63;;;;;;;10.74;83.36;98394.50;5047014;28;20032;-90
2022/01/04 04:18:01;;;;;;;7.00;2.67;;;;;;;10.74;83.18;98392.66;5049616;28;20124;-90
2022/01/04 04:20:27;;;;;;;5.13;2.63;;;;;;;10.75;83.38;98390.84;5054979;28;20063;-90
2022/01/04 04:22:54;;;;;;;5.63;2.53;;;;;;;10.75;83.12;98383.69;5077926;28;20133;-90
2022/01/04 04:25:21;;;;;;;4.45;2.50;;;;;;;10.75;83.22;98382.88;5049203;28;20036;-91
2022/01/04 04:27:50;;;;;;;3.40;2.40;;;;;;;10.75;83.18;98377.56;5055808;28;20047;-90
2022/01/04 04:30:16;;;;;;;5.40;2.58;;;;;;;10.76;83.11;98373.91;5054385;28;20045;-91
2022/01/04 04:32:43;;;;;;;4.65;2.15;;;;;;;10.75;83.20;98377.56;5044820;28;20036;-90
2022/01/04 04:35:10;;;;;;;5.25;2.25;;;;;;;10.76;83.25;98376.56;5062654;28;20056;-90
2022/01/04 04:37:37;;;;;;;5.05;2.83;;;;;;;10.74;83.13;98366.13;5038100;28;20048;-89
2022/01/04 04:40:04;;;;;;;5.63;2.85;;;;;;;10.75;83.60;98367.75;5061970;28;20063;-89
2022/01/04 04:42:31;;;;;;;5.32;2.30;;;;;;;10.75;83.29;98362.47;5026413;28;20048;-90
2022/01/04 04:44:59;;;;;;;5.93;2.47;;;;;;;10.75;83.57;98351.84;5028763;28;20047;-90
2022/01/04 04:47:26;;;;;;;5.55;2.78;;;;;;;10.74;83.51;98349.38;5028696;28;20058;-90
2022/01/04 04:49:53;;;;;;;6.85;2.80;;;;;;;10.76;83.25;98347.34;5046393;28;20039;-90
2022/01/04 04:52:20;;;;;;;6.40;2.83;;;;;;;10.75;83.39;98343.88;5036056;28;20078;-90
2022/01/04 04:54:47;;;;;;;3.80;2.13;;;;;;;10.76;83.50;98342.03;5065317;28;20066;-90
2022/01/04 04:57:14;;;;;;;5.25;2.28;;;;;;;10.76;83.40;98331.41;5076152;28;20039;-90
2022/01/04 04:59:41;;;;;;;5.35;2.55;;;;;;;10.75;83.40;98325.28;5064564;28;20054;-90
2022/01/04 05:02:08;;;;;;;5.57;2.58;;;;;;;10.76;83.67;98319.00;5053089;28;20053;-89
2022/01/04 05:04:35;;;;;;;6.03;3.17;;;;;;;10.76;83.77;98326.09;5068268;28;20578;-90
2022/01/04 05:07:02;;;;;;;4.55;2.45;;;;;;;10.75;83.56;98322.63;5062844;28;20036;-91
2022/01/04 05:09:29;;;;;;;4.95;2.42;;;;;;;10.76;83.64;98310.19;5044152;28;20051;-90
2022/01/04 05:11:56;;;;;;;4.35;2.50;;;;;;;10.76;83.77;98313.69;5060576;28;20051;-90
2022/01/04 05:14:28;;;;;;;4.95;2.25;;;;;;;10.73;83.51;98299.91;5045512;28;20046;-91
2022/01/04 05:16:55;;;;;;;4.30;1.90;;;;;;;10.76;83.40;98291.59;5078846;28;20040;-90
2022/01/04 05:19:21;;;;;;;4.93;2.40;;;;;;;10.77;83.46;98290.59;5031492;28;20048;-90
2022/01/04 05:21:48;;;;;;;2.80;2.10;;;;;;;10.76;83.38;98278.31;5064068;28;20125;-90
2022/01/04 05:24:15;;;;;;;4.60;2.67;;;;;;;10.76;83.65;98273.84;5047776;28;20048;-90
2022/01/04 05:26:42;;;;;;;3.53;2.17;;;;;;;10.75;83.54;98268.72;5063640;28;20062;-89
2022/01/04 05:29:09;;;;;;;6.10;3.08;;;;;;;10.75;83.45;98250.94;5055892;28;20052;-90
2022/01/04 05:31:36;;;;;;;3.35;2.40;;;;;;;10.76;83.45;98251.78;5055369;28;20056;-90
2022/01/04 05:34:02;;;;;;;7.05;2.63;;;;;;;10.77;83.53;98253.44;5035080;28;20063;-91
2022/01/04 05:36:29;;;;;;;2.80;2.50;;;;;;;10.76;83.61;98242.00;5030398;28;20081;-92
2022/01/04 05:38:56;;;;;;;3.28;2.25;;;;;;;10.77;83.50;98240.16;5035001;28;20040;-91
2022/01/04 05:41:23;;;;;;;4.85;2.92;;;;;;;10.77;83.39;98242.81;5054161;28;20044;-91
2022/01/04 05:43:50;;;;;;;5.20;2.38;;;;;;;10.75;83.45;98237.69;5050915;28;20119;-91
2022/01/04 05:46:16;;;;;;;3.63;2.88;;;;;;;10.77;83.52;98233.03;5078581;28;20120;-88
2022/01/04 05:48:43;;;;;;;4.38;2.40;;;;;;;10.76;83.50;98225.22;5048525;28;20402;-89
2022/01/04 05:51:10;;;;;;;2.70;2.22;;;;;;;10.77;83.33;98227.72;5015312;28;20531;-88
2022/01/04 05:53:37;;;;;;;4.13;2.33;;;;;;;10.77;83.54;98224.22;5082563;28;20045;-88
2022/01/04 05:56:04;;;;;;;5.63;2.70;;;;;;;10.77;83.52;98210.97;5067609;28;20059;-88
2022/01/04 05:58:31;;;;;;;5.95;3.00;;;;;;;10.77;83.57;98210.97;5041164;28;20055;-88
2022/01/04 06:00:58;;;;;;;7.22;3.63;;;;;;;10.77;83.54;98213.63;5081848;28;20118;-88
2022/01/04 06:03:25;;;;;;;4.20;3.47;;;;;;;10.77;83.71;98210.97;5065964;28;20063;-89
2022/01/04 06:05:53;;;;;;;4.57;3.55;;;;;;;10.77;83.85;98210.97;5057263;28;20124;-88
2022/01/04 06:08:21;;;;;;;5.68;3.92;;;;;;;10.77;83.87;98205.66;5049342;28;20051;-89
2022/01/04 06:10:51;;;;;;;4.22;2.75;;;;;;;10.78;83.86;98196.66;5032421;28;20052;-88
2022/01/04 06:16:04;;;;;;;4.85;2.90;;;;;;;10.76;83.91;98191.56;5034393;28;20040;-89
2022/01/04 06:18:30;;;;;;;4.43;2.67;;;;;;;10.78;84.13;98183.41;5062226;28;20041;-88
2022/01/04 06:20:57;;;;;;;5.15;3.10;;;;;;;10.76;84.10;98172.13;5037060;28;20084;-88
2022/01/04 06:23:24;;;;;;;7.47;3.20;;;;;;;10.77;84.02;98176.44;5048495;28;20479;-88
2022/01/04 06:25:52;;;;;;;7.20;3.03;;;;;;;10.77;84.06;98163.16;5064649;28;20119;-88
2022/01/04 06:28:20;;;;;;;6.38;3.42;;;;;;;10.77;84.21;98168.47;5079135;28;20075;-89
2022/01/04 06:30:49;;;;;;;3.13;2.53;;;;;;;10.74;84.11;98160.88;5072589;28;20040;-88
2022/01/04 06:33:20;;;;;;;5.45;3.05;;;;;;;10.73;84.03;98154.72;5035197;28;20040;-89
2022/01/04 06:35:48;;;;;;;9.00;2.30;;;;;;;10.77;84.11;98155.22;5062113;28;21570;-88
2022/01/04 06:38:15;;;;;;;3.53;2.13;;;;;;;10.77;84.32;98157.84;5046280;28;20051;-89
2022/01/04 06:40:42;;;;;;;4.55;2.58;;;;;;;10.76;84.17;98150.88;5035231;28;20079;-88
2022/01/04 06:43:09;;;;;;;5.63;2.53;;;;;;;10.76;84.32;98140.25;5036742;28;20051;-88
2022/01/04 06:45:37;;;;;;;6.47;2.50;;;;;;;10.77;84.11;98149.91;5033845;28;20054;-87
2022/01/04 06:48:04;;;;;;;3.50;2.00;;;;;;;10.76;84.23;98140.25;5035206;28;20051;-87
2022/01/04 06:50:31;;;;;;;3.25;1.95;;;;;;;10.77;84.14;98137.44;5034484;28;20079;-86
2022/01/04 06:52:58;;;;;;;2.72;1.40;;;;;;;10.77;84.24;98134.78;5049947;28;20045;-88
2022/01/04 06:55:25;;;;;;;4.60;2.25;;;;;;;10.76;84.46;98127.84;5044446;28;20052;-88
2022/01/04 06:57:53;;;;;;;3.78;1.75;;;;;;;10.78;84.16;98130.28;5067035;28;20040;-88
2022/01/04 07:00:20;;;;;;;4.38;1.67;;;;;;;10.80;84.27;98120.31;5039277;28;20114;-87
2022/01/04 07:02:46;;;;;;;2.97;1.40;;;;;;;10.78;84.29;98119.69;5053698;28;20132;-88
2022/01/04 07:05:14;;;;;;;3.58;2.00;;;;;;;10.80;84.36;98120.31;5057510;28;20048;-87
2022/01/04 07:07:41;;;;;;;5.68;2.47;;;;;;;10.80;84.43;98117.66;5060688;28;20045;-88
2022/01/04 07:10:10;;;;;;;3.17;2.05;;;;;;;10.79;84.46;98113.38;5060878;28;20190;-87
2022/01/04 07:12:37;;;;;;;2.60;1.70;;;;;;;10.80;84.56;98107.88;5062893;28;20414;-87
2022/01/04 07:15:04;;;;;;;2.75;1.58;;;;;;;10.81;84.57;98103.38;5050035;28;20051;-87
2022/01/04 07:17:31;;;;;;;3.08;1.95;;;;;;;10.81;84.61;98098.06;5034599;28;20044;-87
2022/01/04 07:19:57;;;;;;;1.92;1.40;;;;;;;10.80;84.57;98088.47;5053192;28;20075;-87
2022/01/04 07:22:25;;;;;;;4.30;1.40;;;;;;;10.81;84.91;98096.25;5048058;28;20055;-90
2022/01/04 07:24:52;;;;;;;1.80;1.55;;;;;;;10.81;84.79;98090.09;5043413;28;20119;-90
2022/01/04 07:27:19;;;;;;;3.25;1.42;;;;;;;10.82;85.08;98089.94;5030694;28;20111;-90
2022/01/04 07:29:45;;;;;;;6.13;1.55;;;;;;;10.83;84.94;98091.56;5050412;28;20039;-87
2022/01/04 07:32:12;;;;;;;5.32;2.15;;;;;;;10.84;85.17;98076.50;5057843;28;20040;-87
2022/01/04 07:34:39;;;;;;;3.40;2.05;;;;;;;10.84;85.20;98079.16;5036570;28;20063;-87
2022/01/04 07:37:06;;;;;;;4.78;1.83;;;;;;;10.85;85.39;98084.25;5072140;28;20038;-87
2022/01/04 07:39:33;;;;;;;2.88;1.90;;;;;;;10.86;85.22;98069.16;5035383;28;20044;-87
2022/01/04 07:42:02;;;;;;;3.53;1.50;;;;;;;10.87;85.06;98076.13;5055810;28;20045;-87
2022/01/04 07:44:31;;;;;;;4.85;1.73;;;;;;;10.87;85.13;98070.81;5044505;28;20052;-87
2022/01/04 07:46:57;;;;;;;2.78;1.70;;;;;;;10.86;85.23;98077.97;5049532;28;20048;-87
2022/01/04 07:49:25;;;;;;;3.30;1.92;;;;;;;10.88;85.30;98076.94;5062310;28;20045;-87
2022/01/04 07:51:53;;;;;;;2.55;1.52;;;;;;;10.89;85.12;98060.00;5054743;28;20056;-87
2022/01/04 07:54:20;;;;;;;4.22;1.95;;;;;;;10.88;85.21;98067.13;5063239;28;20131;-87
2022/01/04 07:56:47;;;;;;;2.80;1.50;;;;;;;10.90;85.38;98062.47;5064817;28;20410;-87
2022/01/04 07:59:16;;;;;;;4.57;1.92;;;;;;;10.88;85.36;98061.00;5058403;28;20045;-87
2022/01/04 08:01:42;;;;;;;2.60;1.80;;;;;;;10.90;85.09;98056.34;5030830;28;20043;-87
2022/01/04 08:04:09;;;;;;;2.95;1.45;;;;;;;10.89;85.45;98058.19;5063585;28;20053;-87
2022/01/04 08:06:36;;;;;;;7.40;1.70;;;;;;;10.90;85.49;98051.84;5049787;28;20411;-87
2022/01/04 08:09:03;;;;;;;3.50;1.52;;;;;;;10.90;85.40;98049.19;5077770;28;20056;-86
2022/01/04 08:11:30;;;;;;;3.20;1.73;;;;;;;10.90;85.66;98056.34;5062552;28;20162;-87
2022/01/04 08:13:56;;;;;;;4.60;2.40;;;;;;;10.91;85.26;98045.53;5062799;28;20499;-87
2022/01/04 08:16:23;;;;;;;4.93;2.78;;;;;;;10.90;85.67;98040.41;5026321;28;20047;-87
2022/01/04 08:18:50;;;;;;;4.18;2.50;;;;;;;10.91;85.74;98034.09;5061119;28;20475;-88
2022/01/04 08:21:33;;;;;;;5.78;2.50;;;;;;;10.91;85.87;98042.06;5054655;28;20048;-86
2022/01/04 08:23:59;;;;;;;6.18;2.40;;;;;;;10.92;85.85;98041.88;5064337;28;20403;-85
2022/01/04 08:26:28;;;;;;;3.05;2.00;;;;;;;10.92;86.02;98036.56;5064108;28;20484;-86
2022/01/04 08:28:56;;;;;;;5.05;2.10;;;;;;;10.95;86.68;98022.94;5075207;28;20539;-86
2022/01/04 08:31:24;;;;;;;4.15;1.80;;;;;;;10.91;86.06;98018.16;5029001;28;20045;-84
2022/01/04 08:33:52;;;;;;;4.63;1.90;;;;;;;10.92;86.25;98025.13;5075746;28;20068;-83
2022/01/04 08:36:21;;;;;;;3.53;1.85;;;;;;;10.92;86.46;98009.19;5044661;28;20492;-85
2022/01/04 08:38:47;;;;;;;6.75;2.17;;;;;;;10.92;86.27;98017.16;5047944;28;20056;-85
2022/01/04 08:41:16;;;;;;;5.00;2.30;;;;;;;10.91;86.43;98016.31;5067023;28;20506;-84
2022/01/04 08:43:45;;;;;;;3.67;1.80;;;;;;;10.92;86.20;98012.69;5039287;28;20444;-88
2022/01/04 08:46:12;;;;;;;3.42;1.60;;;;;;;10.93;86.34;98000.22;5026071;28;20043;-87
2022/01/04 08:49:34;;;;;;;2.90;1.70;;;;;;;10.78;86.51;97995.72;5079003;28;20066;-87
2022/01/04 08:52:04;;;;;;;5.40;1.80;;;;;;;10.91;86.57;97980.97;5013216;28;20060;-88
2022/01/04 08:54:31;;;;;;;3.38;1.58;;;;;;;10.92;86.68;97982.66;5029692;28;20041;-88
2022/01/04 08:56:58;;;;;;;4.00;1.88;;;;;;;10.96;86.43;97966.13;5059907;28;20054;-87
2022/01/04 08:59:26;;;;;;;4.88;1.67;;;;;;;10.96;86.50;97973.28;5039490;28;20076;-88
2022/01/04 09:01:54;;;;;;;3.17;2.10;;;;;;;10.98;86.65;97964.13;5063314;28;20048;-88
2022/01/04 09:04:26;;;;;;;4.38;2.08;;;;;;;10.93;86.35;97961.19;5028473;28;20056;-87
2022/01/04 09:06:53;;;;;;;3.85;1.67;;;;;;;10.96;86.73;97966.13;5081644;28;20127;-87
2022/01/04 09:09:20;;;;;;;2.90;1.70;;;;;;;10.99;86.93;97964.94;5046649;28;20049;-87
2022/01/04 09:11:47;;;;;;;4.30;1.95;;;;;;;10.99;86.70;97956.97;5046725;28;20059;-87
2022/01/04 09:14:40;;;;;;;3.20;1.83;;;;;;;11.01;86.54;97962.94;5044829;28;20480;-87
2022/01/04 09:19:58;;;;;;;5.10;1.80;;;;;;;10.96;87.31;97949.38;5013838;28;20040;-86
2022/01/04 09:22:25;;;;;;;7.30;2.13;;;;;;;10.99;86.69;97954.31;5043614;28;20041;-87
2022/01/04 09:24:52;;;;;;;6.18;1.70;;;;;;;11.00;86.86;97956.00;5078494;28;20076;-88
2022/01/04 09:27:18;;;;;;;4.57;1.95;;;;;;;10.99;86.92;97949.00;5013228;28;20111;-87
2022/01/04 09:29:45;;;;;;;3.13;1.70;;;;;;;11.00;86.88;97956.81;5042386;28;20044;-87
2022/01/04 09:32:16;;;;;;;3.65;2.00;;;;;;;11.01;87.32;97941.69;5050457;28;20048;-87
2022/01/04 09:34:44;;;;;;;5.22;2.17;;;;;;;11.01;87.08;97944.34;5048087;28;20048;-87
2022/01/04 09:37:11;;;;;;;5.88;1.90;;;;;;;11.02;87.38;97938.88;5026939;28;20114;-87
2022/01/04 09:39:38;;;;;;;3.15;1.90;;;;;;;11.01;87.29;97934.53;5025931;28;20039;-88
2022/01/04 09:42:07;;;;;;;11.27;2.67;;;;;;;11.04;87.06;97930.69;5048628;28;20040;-87
2022/01/04 09:44:35;;;;;;;5.05;2.33;;;;;;;11.02;87.60;97925.59;5029801;28;20048;-88
2022/01/04 09:47:04;;;;;;;3.88;2.10;;;;;;;11.04;87.36;97920.91;5047695;28;20495;-87
2022/01/04 09:49:31;;;;;;;3.95;1.83;;;;;;;11.05;87.69;97914.59;5050239;28;20044;-89
2022/01/04 09:51:58;;;;;;;4.03;2.00;;;;;;;11.02;87.68;97904.34;5034954;28;20039;-90
2022/01/04 09:54:26;;;;;;;3.97;2.85;;;;;;;11.06;87.47;97912.75;5082192;28;20035;-91
2022/01/04 09:57:42;;;;;;;6.78;3.20;;;;;;;10.90;87.67;97916.44;5069327;28;20051;-91
2022/01/04 10:00:14;;;;;;;6.65;3.03;;;;;;;11.03;87.69;97921.91;5007526;28;20161;-90
2022/01/04 10:03:15;;;;;;;4.70;2.75;;;;;;;10.92;87.39;97901.16;5059840;28;20538;-90
2022/01/04 10:13:37;;;;;;;4.00;2.63;;;;;;;10.99;87.75;97891.44;5026106;28;20523;-89
2022/01/04 10:16:14;;;;;;;5.30;1.85;;;;;;;10.97;87.51;97885.47;5032592;28;20057;-90
2022/01/04 10:23:12;;;;;;;5.50;1.85;;;;;;;10.99;88.06;97886.13;5013286;28;20032;-90
2022/01/04 10:25:40;;;;;;;3.63;2.10;;;;;;;11.16;88.38;97861.97;5060560;28;20060;-90
2022/01/04 10:28:11;;;;;;;2.85;1.90;;;;;;;11.10;88.21;97870.72;5066190;28;20051;-85
2022/01/04 10:30:39;;;;;;;3.70;1.90;;;;;;;11.11;87.73;97864.38;5066079;28;20068;-87
2022/01/04 10:33:14;;;;;;;2.58;1.80;;;;;;;11.02;88.00;97869.00;5050257;28;20159;-85
2022/01/04 10:35:49;;;;;;;2.97;1.95;;;;;;;11.04;87.91;97864.28;5065517;28;20060;-85
2022/01/04 10:38:22;;;;;;;3.53;1.65;;;;;;;11.06;87.88;97873.72;5021106;28;20043;-86
2022/01/04 10:41:03;;;;;;;5.72;2.08;;;;;;;11.05;87.72;97850.84;5024174;28;20048;-85
2022/01/04 10:43:33;;;;;;;3.15;2.15;;;;;;;11.13;87.88;97857.06;5029808;28;20389;-83
2022/01/04 10:46:01;;;;;;;3.42;2.20;;;;;;;11.14;88.07;97840.91;5048716;28;20060;-84
2022/01/04 10:48:39;;;;;;;4.55;2.30;;;;;;;11.13;88.21;97851.75;5075239;28;20048;-85
2022/01/04 10:51:07;;;;;;;9.02;3.95;;;;;;;11.17;88.36;97856.50;5029396;28;20052;-82
2022/01/04 10:53:54;;;;;;;5.95;2.60;;;;;;;11.10;88.53;97852.13;5045000;28;20056;-82
2022/01/04 10:56:32;;;;;;;4.57;2.10;;;;;;;11.05;88.25;97848.19;5013619;28;20037;-83
2022/01/04 10:59:02;;;;;;;6.00;2.05;;;;;;;11.14;88.09;97851.53;5041605;28;20094;-83
2022/01/04 11:01:37;;;;;;;6.05;2.92;;;;;;;11.14;88.08;97853.38;5078594;28;20087;-86
2022/01/04 11:04:04;;;;;;;9.18;2.97;;;;;;;11.19;88.11;97858.94;5046147;28;20048;-84
2022/01/04 11:06:35;;;;;;;7.85;2.72;;;;;;;11.17;88.16;97845.03;5045737;28;20393;-84
2022/01/04 11:09:04;;;;;;;4.65;2.08;;;;;;;11.16;88.10;97852.16;5045832;28;20045;-85
2022/01/04 11:11:31;;;;;;;8.25;3.45;;;;;;;11.24;88.70;97852.03;5064670;28;20049;-81
2022/01/04 11:13:58;;;;;;;11.85;4.15;;;;;;;11.21;88.64;97841.81;5073097;28;20033;-83
2022/01/04 11:16:27;;;;;;;6.95;3.20;;;;;;;11.21;88.45;97838.34;5060469;28;20045;-86
2022/01/04 11:18:56;;;;;;;6.95;3.00;;;;;;;11.20;88.39;97834.84;5046772;28;20041;-86
2022/01/04 11:21:28;;;;;;;5.30;2.50;;;;;;;11.22;88.21;97832.84;5045984;28;20049;-86
2022/01/04 11:23:58;;;;;;;7.85;3.65;;;;;;;11.20;88.35;97818.91;5061387;28;20044;-91
2022/01/04 11:26:27;;;;;;;3.03;2.10;;;;;;;11.27;88.22;97827.78;5045792;28;20044;-87
2022/01/04 11:28:56;;;;;;;7.63;2.95;;;;;;;11.24;88.57;97822.81;5037516;28;20420;-89
2022/01/04 11:31:23;;;;;;;5.13;2.10;;;;;;;11.28;88.61;97810.81;5042745;28;20098;-90
2022/01/04 11:33:59;;;;;;;6.25;2.30;;;;;;;11.19;88.57;97811.13;5042179;28;20045;-88
2022/01/04 11:36:27;;;;;;;9.48;2.83;;;;;;;11.47;88.76;97813.84;5032256;28;20039;-90
2022/01/04 11:38:54;;;;;;;10.10;4.28;;;;;;;11.29;88.85;97798.34;5029546;28;20045;-85
2022/01/04 11:41:33;;;;;;;7.45;3.28;;;;;;;11.17;88.74;97819.31;5055261;28;20048;-87
2022/01/04 11:48:43;;;;;;;4.88;2.40;;;;;;;11.25;88.74;97791.78;5046244;28;20047;-88
2022/01/04 11:55:57;;;;;;;4.82;2.28;;;;;;;11.28;88.67;97773.63;5056062;28;20106;-94
2022/01/04 12:02:59;;;;;;;3.50;2.70;;;;;;;11.12;88.94;97800.44;4992181;28;20052;-89
2022/01/04 12:05:56;;;;;;;5.40;2.15;;;;;;;11.18;88.76;97782.94;5014485;28;20055;-88
2022/01/04 12:08:33;;;;;;;3.78;2.42;;;;;;;11.22;88.36;97824.03;5033160;28;20102;-86
2022/01/04 12:11:19;;;;;;;6.38;2.25;;;;;;;11.16;88.61;97817.63;5047345;28;20068;-86
2022/01/04 12:13:49;;;;;;;5.88;2.53;;;;;;;11.28;88.70;97842.69;5048635;28;20520;-84
2022/01/04 12:16:42;;;;;;;2.42;1.67;;;;;;;11.24;87.91;97851.22;4974125;28;20887;-89
2022/01/04 12:19:15;;;;;;;2.63;1.30;;;;;;;11.26;88.16;97854.53;5015484;28;20555;-89
2022/01/04 12:21:42;;;;;;;1.80;1.67;;;;;;;11.27;88.36;97853.50;4993251;28;20386;-92
2022/01/04 12:24:12;;;;;;;2.63;1.08;;;;;;;11.30;87.80;97859.28;4993747;28;20132;-92